Time;durP1;ratioP1;P1;durP2;ratioP2;P2;SDS_P1;SDS_P2;PMS_P1;PMS_P2;Temp;Humidity;BMP_temperature;BMP_pressure;BME280_temperature;BME280_humidity;BME280_pressure;Samples;Min_cycle;Max_cycle;Signal;HPM_P1;HPM_P2
2024/01/01 00:01:44;;;;;;;49.97;37.70;;;;;;;5.85;80.65;97352.38;4935908;29;20046;-72
2024/01/01 00:04:09;;;;;;;45.03;34.58;;;;;;;5.83;81.16;97338.41;4959871;28;20027;-72
2024/01/01 00:06:35;;;;;;;44.30;35.20;;;;;;;5.84;80.65;97350.72;4948827;29;20335;-72
2024/01/01 00:09:01;;;;;;;40.75;30.63;;;;;;;5.81;80.15;97348.53;4934512;29;20448;-72
2024/01/01 00:11:26;;;;;;;41.72;31.80;;;;;;;5.77;80.63;97342.00;4928211;29;20049;-72
2024/01/01 00:13:51;;;;;;;36.35;29.50;;;;;;;5.84;80.42;97351.56;4935129;29;20059;-71
2024/01/01 00:16:17;;;;;;;35.83;28.98;;;;;;;5.68;80.70;97320.19;4938451;29;20125;-72
2024/01/01 00:18:42;;;;;;;39.50;28.98;;;;;;;5.87;81.22;97342.25;4939180;29;20119;-72
2024/01/01 00:21:08;;;;;;;38.10;29.05;;;;;;;5.83;80.88;97338.41;4936455;29;20073;-72
2024/01/01 00:23:33;;;;;;;41.45;30.23;;;;;;;5.90;80.50;97345.28;4936434;29;20042;-72
2024/01/01 00:25:59;;;;;;;39.60;30.60;;;;;;;5.77;81.11;97317.97;4942315;29;20043;-72
2024/01/01 00:28:24;;;;;;;42.58;33.35;;;;;;;5.89;80.80;97332.16;4925634;29;20098;-74
2024/01/01 00:30:50;;;;;;;47.35;35.70;;;;;;;5.87;80.72;97318.22;4921991;29;20039;-72
2024/01/01 00:33:15;;;;;;;52.25;39.05;;;;;;;6.00;80.31;97333.97;4920782;29;20031;-73
2024/01/01 00:35:40;;;;;;;56.20;41.28;;;;;;;5.94;80.78;97324.25;4939441;29;20510;-72
2024/01/01 00:38:06;;;;;;;55.53;43.47;;;;;;;5.94;80.42;97314.38;4922772;29;20127;-72
2024/01/01 00:40:31;;;;;;;60.55;45.72;;;;;;;6.01;80.61;97330.28;4922435;29;20054;-72
2024/01/01 00:42:57;;;;;;;60.75;47.85;;;;;;;5.91;80.63;97319.38;4960748;28;20030;-72
2024/01/01 00:45:22;;;;;;;64.05;49.22;;;;;;;5.97;80.69;97323.78;4935231;29;20106;-72
2024/01/01 00:47:48;;;;;;;66.22;52.70;;;;;;;5.92;80.70;97315.66;4925454;29;20031;-72
2024/01/01 00:50:13;;;;;;;66.47;51.13;;;;;;;6.01;80.43;97335.59;4959456;28;20070;-72
2024/01/01 00:52:39;;;;;;;68.78;50.22;;;;;;;5.99;80.79;97327.03;4920568;29;20107;-72
2024/01/01 00:55:05;;;;;;;69.18;51.25;;;;;;;6.02;80.24;97335.38;4928161;29;20039;-72
2024/01/01 00:57:30;;;;;;;67.30;50.75;;;;;;;6.01;80.19;97324.91;4933695;29;20124;-72
2024/01/01 00:59:55;;;;;;;67.22;49.33;;;;;;;5.85;80.44;97296.28;4930471;29;20086;-73
2024/01/01 01:02:21;;;;;;;66.75;50.20;;;;;;;5.90;80.34;97312.41;4940047;28;20437;-72
2024/01/01 01:04:47;;;;;;;60.35;46.55;;;;;;;6.04;81.48;97329.81;4921784;29;20051;-74
2024/01/01 01:07:12;;;;;;;59.63;45.53;;;;;;;5.77;80.05;97288.59;4920115;29;20079;-72
2024/01/01 01:09:38;;;;;;;54.88;43.42;;;;;;;6.07;80.54;97334.66;4927744;29;20488;-72
2024/01/01 01:12:04;;;;;;;59.72;45.15;;;;;;;6.05;80.60;97323.38;4956680;28;20047;-72
2024/01/01 01:14:29;;;;;;;53.80;41.20;;;;;;;6.08;81.11;97326.41;4949306;29;20067;-72
2024/01/01 01:16:54;;;;;;;50.90;39.50;;;;;;;6.07;80.65;97329.31;4933129;29;20028;-72
2024/01/01 01:19:20;;;;;;;52.13;39.97;;;;;;;6.03;80.63;97322.81;4936521;29;20506;-73
2024/01/01 01:21:45;;;;;;;49.55;38.40;;;;;;;5.95;80.41;97309.84;4952352;29;20032;-72
2024/01/01 01:24:15;;;;;;;47.95;39.20;;;;;;;6.00;80.42;97317.94;4920998;29;20035;-72
2024/01/01 01:26:41;;;;;;;47.17;36.70;;;;;;;6.13;80.25;97331.06;4942465;29;20030;-72
2024/01/01 01:29:06;;;;;;;45.40;34.38;;;;;;;6.14;80.19;97324.63;4918969;29;20032;-71
2024/01/01 01:31:32;;;;;;;45.42;33.75;;;;;;;6.14;79.87;97324.63;4926780;29;20475;-71
2024/01/01 01:33:57;;;;;;;43.75;33.70;;;;;;;6.12;80.26;97321.41;4949532;29;20043;-73
2024/01/01 01:36:22;;;;;;;41.17;32.60;;;;;;;6.12;79.73;97321.41;4955919;29;20530;-73
2024/01/01 01:38:48;;;;;;;45.30;34.50;;;;;;;6.00;80.52;97307.25;4939745;29;20062;-71
2024/01/01 01:41:13;;;;;;;41.67;31.95;;;;;;;5.94;79.91;97297.53;4955804;29;20369;-72
2024/01/01 01:43:38;;;;;;;41.22;29.77;;;;;;;6.14;79.47;97316.63;4952561;29;20039;-72
2024/01/01 01:46:04;;;;;;;41.35;28.88;;;;;;;6.12;80.53;97318.72;4938169;29;20023;-72
2024/01/01 01:48:31;;;;;;;36.00;28.38;;;;;;;5.99;79.93;97294.97;4924846;29;20035;-72
2024/01/01 01:50:56;;;;;;;36.25;27.55;;;;;;;6.06;79.93;97327.69;4927170;29;20058;-72
2024/01/01 01:53:23;;;;;;;34.35;27.58;;;;;;;6.08;79.96;97331.75;4923626;29;20035;-72
2024/01/01 01:55:50;;;;;;;33.70;25.55;;;;;;;6.16;79.23;97333.25;4923711;29;20070;-72
2024/01/01 01:58:16;;;;;;;35.85;26.23;;;;;;;6.16;79.18;97333.25;4916629;29;20063;-74
2024/01/01 02:00:42;;;;;;;33.65;25.15;;;;;;;6.12;80.01;97316.06;4952373;29;20758;-72
2024/01/01 02:03:08;;;;;;;33.88;25.52;;;;;;;6.13;79.73;97328.38;4921999;29;20031;-72
2024/01/01 02:05:33;;;;;;;30.40;24.73;;;;;;;6.06;79.52;97322.34;4944302;29;20098;-73
2024/01/01 02:08:00;;;;;;;29.33;23.48;;;;;;;6.03;79.76;97307.59;4930269;29;20039;-72
2024/01/01 02:10:25;;;;;;;28.10;22.95;;;;;;;6.17;79.61;97329.53;4923992;29;20130;-72
2024/01/01 02:12:51;;;;;;;32.40;24.48;;;;;;;6.12;79.14;97316.06;4921611;29;20494;-73
2024/01/01 02:15:16;;;;;;;28.00;22.40;;;;;;;6.18;79.69;97329.28;4938383;29;20027;-72
2024/01/01 02:17:42;;;;;;;31.13;22.83;;;;;;;6.14;79.31;97319.28;4938793;29;20430;-72
2024/01/01 02:20:07;;;;;;;28.13;20.27;;;;;;;6.23;78.82;97331.25;4936955;29;20047;-72
2024/01/01 02:22:39;;;;;;;27.08;20.05;;;;;;;6.21;78.53;97319.97;4934068;29;20514;-72
2024/01/01 02:25:09;;;;;;;27.25;19.65;;;;;;;6.24;78.79;97330.19;4928737;29;20067;-72
2024/01/01 02:27:35;;;;;;;29.00;19.58;;;;;;;6.15;78.87;97315.59;4933197;29;20581;-72
2024/01/01 02:30:00;;;;;;;30.30;20.50;;;;;;;6.12;78.87;97316.06;4934035;29;20024;-72
2024/01/01 02:32:26;;;;;;;23.88;19.90;;;;;;;6.21;79.09;97338.69;4949178;28;20046;-72
2024/01/01 02:34:51;;;;;;;26.05;20.20;;;;;;;6.11;78.91;97335.81;4950495;29;20094;-72
2024/01/01 02:37:17;;;;;;;31.30;22.38;;;;;;;6.21;78.97;97342.16;4914604;29;20135;-72
2024/01/01 02:39:42;;;;;;;31.60;24.08;;;;;;;6.16;78.42;97343.94;4938312;29;20028;-73
2024/01/01 02:42:07;;;;;;;34.53;27.27;;;;;;;6.20;78.96;97350.44;4938439;28;20070;-73
2024/01/01 02:44:33;;;;;;;33.13;25.65;;;;;;;6.13;79.09;97336.41;4953895;28;20023;-73
2024/01/01 02:46:58;;;;;;;34.80;26.67;;;;;;;6.19;78.58;97349.63;4928649;29;20066;-73
2024/01/01 02:49:24;;;;;;;36.38;26.38;;;;;;;6.15;78.61;97339.63;4930514;29;20026;-73
2024/01/01 02:51:49;;;;;;;35.83;26.08;;;;;;;6.10;79.10;97339.53;4952465;29;20075;-73
2024/01/01 02:54:15;;;;;;;27.13;22.63;;;;;;;6.12;78.47;97340.09;4931885;29;20403;-72
2024/01/01 02:56:40;;;;;;;31.52;23.55;;;;;;;6.06;78.95;97333.03;4924970;29;20118;-73
2024/01/01 02:59:06;;;;;;;30.23;23.58;;;;;;;6.23;78.77;97358.78;4937765;29;20094;-74
2024/01/01 03:01:31;;;;;;;32.63;21.73;;;;;;;6.15;79.12;97350.34;4939350;29;20047;-73
2024/01/01 03:03:57;;;;;;;29.77;21.88;;;;;;;6.12;78.39;97337.44;4937718;29;20035;-72
2024/01/01 03:06:22;;;;;;;25.83;20.00;;;;;;;6.15;78.43;97336.97;4945942;29;20039;-72
2024/01/01 03:08:47;;;;;;;29.80;19.58;;;;;;;6.10;78.37;97334.19;4921938;29;20023;-72
2024/01/01 03:11:14;;;;;;;25.20;18.90;;;;;;;6.21;79.01;97352.03;4953150;29;20474;-73
2024/01/01 03:13:39;;;;;;;24.75;18.95;;;;;;;6.05;78.94;97320.72;4936741;29;20031;-72
2024/01/01 03:16:06;;;;;;;23.55;17.20;;;;;;;6.11;79.06;97325.91;4927851;28;20491;-73
2024/01/01 03:18:31;;;;;;;25.25;17.38;;;;;;;6.09;78.79;97321.88;4934134;29;20455;-73
2024/01/01 03:20:57;;;;;;;19.33;15.35;;;;;;;6.09;79.02;97322.69;4916492;29;20109;-73
2024/01/01 03:23:23;;;;;;;22.20;16.27;;;;;;;6.19;78.91;97338.09;4949877;29;20043;-73
2024/01/01 03:25:48;;;;;;;21.55;15.75;;;;;;;6.19;78.71;97351.47;4916798;29;20423;-73
2024/01/01 03:28:14;;;;;;;22.90;14.60;;;;;;;5.99;78.96;97321.69;4952819;29;20062;-72
2024/01/01 03:30:39;;;;;;;23.35;15.60;;;;;;;6.21;78.99;97347.50;4949558;29;20110;-73
2024/01/01 03:33:05;;;;;;;20.15;15.38;;;;;;;6.14;79.20;97346.03;4935316;29;20035;-73
2024/01/01 03:35:31;;;;;;;20.98;15.20;;;;;;;6.01;78.80;97319.56;4953148;29;20047;-73
2024/01/01 03:38:00;;;;;;;17.00;13.98;;;;;;;6.15;79.23;97342.31;4950180;28;20059;-73
2024/01/01 03:40:26;;;;;;;17.45;13.60;;;;;;;6.24;79.31;97352.41;4947492;28;20039;-72
2024/01/01 03:42:51;;;;;;;18.23;14.13;;;;;;;6.21;79.05;97344.84;4949214;28;20502;-72
2024/01/01 03:45:16;;;;;;;18.60;13.90;;;;;;;6.25;78.60;97342.53;4936219;29;20050;-72
2024/01/01 03:47:42;;;;;;;19.05;13.65;;;;;;;6.21;78.88;97342.16;4929326;29;20515;-72
2024/01/01 03:50:08;;;;;;;17.40;13.68;;;;;;;6.20;78.81;97350.44;4928985;29;20035;-73
2024/01/01 03:52:33;;;;;;;18.38;14.50;;;;;;;6.22;78.64;97348.34;4946555;28;20038;-72
2024/01/01 03:54:59;;;;;;;19.60;13.98;;;;;;;6.10;78.98;97323.50;4932286;28;20042;-72
2024/01/01 03:57:24;;;;;;;17.17;13.23;;;;;;;6.21;79.07;97341.34;4946861;29;20034;-73
2024/01/01 03:59:50;;;;;;;19.13;13.43;;;;;;;6.20;78.94;97340.56;4946220;29;20510;-72
2024/01/01 04:02:15;;;;;;;20.38;14.23;;;;;;;6.12;78.68;97332.09;4946364;29;20534;-72
2024/01/01 04:04:44;;;;;;;17.35;13.13;;;;;;;6.12;79.27;97321.41;4920734;29;20043;-72
2024/01/01 04:07:10;;;;;;;19.45;13.25;;;;;;;6.24;79.04;97332.88;4930345;29;20034;-72
2024/01/01 04:09:36;;;;;;;17.98;12.98;;;;;;;6.05;78.92;97315.38;4936642;29;20062;-73
2024/01/01 04:12:01;;;;;;;22.35;13.32;;;;;;;6.14;78.64;97327.31;4952310;28;20055;-72
2024/01/01 04:14:27;;;;;;;17.38;12.93;;;;;;;5.96;78.95;97301.59;4936010;29;20035;-72
2024/01/01 04:16:52;;;;;;;17.58;12.18;;;;;;;6.19;78.68;97338.09;4949421;28;20074;-73
2024/01/01 04:19:18;;;;;;;16.88;11.95;;;;;;;6.07;78.73;97331.97;4913196;29;20047;-73
2024/01/01 04:21:43;;;;;;;15.23;11.93;;;;;;;6.18;78.80;97347.19;4917518;29;20099;-72
2024/01/01 04:24:09;;;;;;;17.10;12.68;;;;;;;6.10;79.13;97344.88;4926270;29;20043;-73
2024/01/01 04:26:37;;;;;;;18.63;12.68;;;;;;;6.02;79.14;97343.38;4933577;29;20035;-73
2024/01/01 04:29:02;;;;;;;16.40;11.73;;;;;;;5.95;78.91;97328.56;4936361;29;20116;-73
2024/01/01 04:31:28;;;;;;;15.35;12.35;;;;;;;5.92;79.42;97329.00;4960230;28;20027;-72
2024/01/01 04:33:53;;;;;;;16.33;12.20;;;;;;;6.04;79.24;97346.66;4934242;29;20204;-72
2024/01/01 04:36:18;;;;;;;15.40;11.90;;;;;;;5.89;79.23;97340.16;4949701;28;20066;-73
2024/01/01 04:38:44;;;;;;;16.33;11.88;;;;;;;6.00;78.87;97360.69;4945492;29;20043;-73
2024/01/01 04:41:10;;;;;;;17.77;12.02;;;;;;;6.02;78.81;97358.63;4946973;29;20023;-72
2024/01/01 04:43:36;;;;;;;18.00;12.15;;;;;;;5.94;79.68;97340.28;4951446;28;20031;-72
2024/01/01 04:46:01;;;;;;;17.00;13.45;;;;;;;6.00;79.36;97358.03;4927967;29;20031;-72
2024/01/01 04:48:27;;;;;;;20.77;13.52;;;;;;;6.04;79.09;97368.03;4931440;29;20102;-72
2024/01/01 04:50:52;;;;;;;19.10;13.00;;;;;;;6.06;78.44;97359.78;4949994;28;20023;-73
2024/01/01 04:53:17;;;;;;;18.00;13.00;;;;;;;6.08;79.76;97368.38;4929382;29;20082;-72
2024/01/01 04:55:43;;;;;;;17.00;12.88;;;;;;;6.02;78.77;97356.75;4951269;28;20082;-73
2024/01/01 04:58:08;;;;;;;18.08;11.75;;;;;;;6.03;79.12;97349.53;4913242;29;20043;-73
2024/01/01 05:00:34;;;;;;;17.55;11.82;;;;;;;6.12;79.12;97358.81;4933973;29;20027;-72
2024/01/01 05:02:59;;;;;;;17.25;12.70;;;;;;;6.13;79.31;97360.44;4924671;29;20083;-72
2024/01/01 05:05:25;;;;;;;17.10;12.20;;;;;;;6.13;80.13;97352.44;4948863;29;20442;-72
2024/01/01 05:07:53;;;;;;;15.52;11.38;;;;;;;5.93;79.27;97328.78;4947396;28;20031;-72
2024/01/01 05:10:18;;;;;;;17.67;12.70;;;;;;;6.07;80.10;97356.03;4922551;29;20118;-71
2024/01/01 05:12:44;;;;;;;18.35;12.35;;;;;;;5.95;80.35;97347.25;4943933;29;20123;-72
2024/01/01 05:15:11;;;;;;;18.33;11.85;;;;;;;6.06;79.66;97365.13;4933541;28;20537;-72
2024/01/01 05:17:36;;;;;;;19.50;12.60;;;;;;;5.93;80.14;97346.66;4935940;29;20042;-73
2024/01/01 05:20:03;;;;;;;16.70;11.90;;;;;;;5.81;80.63;97345.84;4930311;29;20107;-73
2024/01/01 05:22:29;;;;;;;16.83;11.48;;;;;;;5.94;80.27;97357.13;4940521;29;20038;-73
2024/01/01 05:24:55;;;;;;;17.90;12.70;;;;;;;5.79;80.70;97358.63;4948375;29;20035;-73
2024/01/01 05:27:20;;;;;;;18.52;12.48;;;;;;;5.67;80.85;97336.47;4939580;29;20043;-73
2024/01/01 05:29:46;;;;;;;16.50;11.98;;;;;;;5.73;80.77;97359.56;4936973;29;20040;-73
2024/01/01 05:32:11;;;;;;;18.60;12.77;;;;;;;5.79;81.32;97363.97;4914765;28;20076;-74
2024/01/01 05:34:37;;;;;;;17.85;12.25;;;;;;;5.80;81.92;97376.28;4936561;29;20035;-74
2024/01/01 05:37:02;;;;;;;17.90;12.20;;;;;;;5.59;80.80;97338.44;4936633;29;20039;-72
2024/01/01 05:39:27;;;;;;;17.13;11.80;;;;;;;5.75;81.31;97355.59;4956769;29;20445;-73
2024/01/01 05:41:53;;;;;;;18.60;12.43;;;;;;;5.75;81.20;97354.78;4949617;29;20507;-73
2024/01/01 05:44:18;;;;;;;17.95;12.32;;;;;;;5.66;81.33;97332.97;4953875;28;20022;-73
2024/01/01 05:46:44;;;;;;;15.63;11.45;;;;;;;5.75;81.77;97347.59;4949305;29;20046;-75
2024/01/01 05:49:09;;;;;;;15.15;10.90;;;;;;;5.73;81.14;97348.88;4950425;29;20471;-73
2024/01/01 05:51:34;;;;;;;18.08;11.40;;;;;;;5.87;82.20;97363.63;4952796;29;20055;-72
2024/01/01 05:54:00;;;;;;;16.10;11.05;;;;;;;5.79;82.04;97364.78;4937986;29;20114;-73
2024/01/01 05:56:25;;;;;;;19.40;11.52;;;;;;;5.82;81.73;97371.50;4955080;28;20039;-73
2024/01/01 05:58:51;;;;;;;16.17;11.00;;;;;;;5.87;82.47;97371.66;4946455;29;20090;-73
2024/01/01 06:01:16;;;;;;;16.25;11.30;;;;;;;5.80;81.35;97365.59;4949307;29;20043;-74
2024/01/01 06:03:42;;;;;;;17.42;11.32;;;;;;;5.84;82.57;97380.09;4920219;29;20031;-74
2024/01/01 06:06:09;;;;;;;16.08;11.27;;;;;;;5.94;81.53;97393.72;4936821;29;20058;-74
2024/01/01 06:08:34;;;;;;;15.05;11.13;;;;;;;5.86;82.00;97383.41;4934597;29;20027;-74
2024/01/01 06:11:00;;;;;;;17.55;10.75;;;;;;;5.91;82.44;97378.16;4935381;29;20119;-73
2024/01/01 06:13:25;;;;;;;14.98;9.63;;;;;;;5.99;82.23;97383.16;4954195;29;20054;-74
2024/01/01 06:15:51;;;;;;;14.25;10.02;;;;;;;5.91;81.60;97370.13;4938115;29;20065;-74
2024/01/01 06:18:17;;;;;;;14.60;10.23;;;;;;;5.82;81.60;97360.81;4953858;28;20118;-75
2024/01/01 06:20:42;;;;;;;17.27;10.07;;;;;;;5.96;81.95;97375.59;4918150;29;20055;-74
2024/01/01 06:23:07;;;;;;;15.43;9.80;;;;;;;5.93;81.97;97370.69;4933425;29;20078;-74
2024/01/01 06:25:33;;;;;;;15.38;10.23;;;;;;;6.08;81.80;97395.09;4950463;29;20039;-73
2024/01/01 06:27:58;;;;;;;16.17;9.35;;;;;;;6.01;81.98;97399.75;4938133;29;20480;-74
2024/01/01 06:30:24;;;;;;;15.57;9.85;;;;;;;6.00;81.88;97398.09;4944117;29;20043;-74
2024/01/01 06:32:49;;;;;;;16.45;10.38;;;;;;;5.90;81.90;97405.94;4931358;29;20035;-73
2024/01/01 06:35:14;;;;;;;12.32;9.32;;;;;;;5.84;82.21;97406.81;4924425;29;20051;-74
2024/01/01 06:37:40;;;;;;;13.85;9.15;;;;;;;5.83;83.30;97418.56;4930726;29;20416;-74
2024/01/01 06:40:09;;;;;;;13.30;8.85;;;;;;;5.87;83.33;97417.06;4936146;29;20035;-75
2024/01/01 06:42:34;;;;;;;13.93;9.18;;;;;;;5.65;83.04;97405.34;4937677;29;20182;-72
2024/01/01 06:45:09;;;;;;;11.38;7.38;;;;;;;5.75;83.64;97429.59;4928744;29;20484;-74
2024/01/01 06:47:34;;;;;;;10.57;7.13;;;;;;;5.62;83.69;97416.47;4946652;29;20054;-74
2024/01/01 06:50:00;;;;;;;12.23;7.07;;;;;;;5.75;84.15;97437.59;4930543;29;20019;-72
2024/01/01 06:52:25;;;;;;;11.93;6.63;;;;;;;5.65;84.51;97426.69;4952559;28;20130;-73
2024/01/01 06:54:50;;;;;;;12.23;7.22;;;;;;;5.67;84.60;97425.41;4937932;29;20103;-72
2024/01/01 06:57:16;;;;;;;10.73;7.15;;;;;;;5.64;84.30;97411.72;4929257;29;20090;-72
2024/01/01 06:59:41;;;;;;;13.00;7.65;;;;;;;5.70;84.27;97414.25;4947711;29;20030;-73
2024/01/01 07:02:06;;;;;;;12.07;6.50;;;;;;;5.87;83.94;97433.09;4917555;28;20035;-73
2024/01/01 07:04:32;;;;;;;12.55;7.82;;;;;;;5.87;84.45;97420.56;4954870;29;20478;-73
2024/01/01 07:06:57;;;;;;;13.63;7.68;;;;;;;5.93;83.88;97416.13;4921915;29;20045;-74
2024/01/01 07:09:23;;;;;;;12.05;7.90;;;;;;;6.03;83.69;97429.72;4938122;29;20106;-72
2024/01/01 07:11:48;;;;;;;16.20;9.55;;;;;;;6.06;83.42;97423.91;4914538;29;20515;-72
2024/01/01 07:14:13;;;;;;;14.98;10.68;;;;;;;6.03;83.78;97424.38;4947912;28;20027;-72
2024/01/01 07:16:39;;;;;;;18.00;12.00;;;;;;;5.89;83.65;97401.63;4954479;28;20082;-72
2024/01/01 07:19:05;;;;;;;20.40;11.93;;;;;;;6.00;83.75;97435.53;4930307;29;20023;-72
2024/01/01 07:21:31;;;;;;;17.10;11.75;;;;;;;6.05;84.13;97438.31;4961065;28;20503;-72
2024/01/01 07:23:56;;;;;;;17.90;12.63;;;;;;;5.89;83.41;97412.31;4936794;29;20065;-74
2024/01/01 07:26:22;;;;;;;21.63;13.65;;;;;;;6.01;84.09;97437.16;4949465;29;20151;-73
2024/01/01 07:28:47;;;;;;;20.15;13.15;;;;;;;6.00;84.67;97430.19;4951951;29;20052;-73
2024/01/01 07:31:13;;;;;;;22.20;13.77;;;;;;;6.00;84.12;97427.50;4952422;28;20042;-73
2024/01/01 07:33:38;;;;;;;21.58;14.90;;;;;;;5.92;84.55;97411.84;4920970;29;20466;-73
2024/01/01 07:36:09;;;;;;;23.70;15.40;;;;;;;5.92;84.63;97422.53;4917793;29;20439;-73
2024/01/01 07:38:34;;;;;;;20.73;14.85;;;;;;;5.87;83.94;97412.56;4933314;29;20093;-73
2024/01/01 07:41:00;;;;;;;20.67;14.55;;;;;;;5.89;84.58;97414.97;4941802;29;20031;-72
2024/01/01 07:43:26;;;;;;;22.30;15.82;;;;;;;6.02;83.90;97428.13;4937212;29;20043;-73
2024/01/01 07:45:51;;;;;;;19.77;13.18;;;;;;;5.79;84.14;97396.84;4927486;29;20027;-73
2024/01/01 07:48:17;;;;;;;20.73;14.02;;;;;;;5.93;84.35;97424.16;4930336;29;20035;-72
2024/01/01 07:50:42;;;;;;;22.60;14.52;;;;;;;5.86;84.45;97428.81;4937076;29;20093;-72
2024/01/01 07:53:07;;;;;;;22.23;15.60;;;;;;;5.83;84.78;97439.94;4934040;29;20040;-72
2024/01/01 07:55:33;;;;;;;19.55;13.90;;;;;;;5.96;84.65;97463.78;4932402;28;20082;-72
2024/01/01 07:57:58;;;;;;;22.10;14.88;;;;;;;5.88;84.77;97453.44;4934619;29;20046;-71
2024/01/01 08:00:24;;;;;;;22.38;15.02;;;;;;;5.94;85.01;97461.34;4928329;29;20073;-71
2024/01/01 08:02:50;;;;;;;20.90;14.93;;;;;;;5.91;84.62;97452.97;4928705;29;20043;-71
2024/01/01 08:05:15;;;;;;;23.55;15.25;;;;;;;5.93;84.55;97467.72;4935527;29;20032;-71
2024/01/01 08:07:47;;;;;;;23.50;15.25;;;;;;;5.89;84.78;97450.53;4940218;29;20115;-71
2024/01/01 08:10:16;;;;;;;20.88;13.45;;;;;;;6.02;85.12;97465.53;4919992;29;20055;-71
2024/01/01 08:12:42;;;;;;;23.83;21.20;;;;;;;6.09;85.20;97479.59;4932821;29;20034;-72
2024/01/01 08:15:07;;;;;;;30.38;21.42;;;;;;;6.13;84.86;97473.53;4942949;28;20031;-73
2024/01/01 08:17:33;;;;;;;22.17;17.60;;;;;;;6.10;84.97;97474.00;4936751;29;20031;-73
2024/01/01 08:19:58;;;;;;;20.77;15.13;;;;;;;6.20;85.28;97484.91;4936664;29;20074;-72
2024/01/01 08:22:23;;;;;;;18.23;13.05;;;;;;;6.24;84.91;97470.03;4923010;28;20035;-71
2024/01/01 08:24:49;;;;;;;19.00;11.82;;;;;;;6.33;84.75;97472.31;4943191;29;20058;-72
2024/01/01 08:27:14;;;;;;;20.67;13.55;;;;;;;6.32;84.94;97471.53;4934647;29;20467;-72
2024/01/01 08:29:41;;;;;;;19.35;11.73;;;;;;;6.39;85.11;97479.44;4936191;29;20035;-72
2024/01/01 08:32:07;;;;;;;17.48;11.88;;;;;;;6.42;84.80;97487.78;4943374;29;20487;-72
2024/01/01 08:34:32;;;;;;;17.88;11.77;;;;;;;6.44;85.47;97480.31;4933144;29;20152;-72
2024/01/01 08:37:01;;;;;;;18.92;12.30;;;;;;;6.46;84.97;97467.56;4913759;29;20062;-77
2024/01/01 08:39:27;;;;;;;16.75;11.32;;;;;;;6.58;84.62;97481.69;4949263;29;20118;-71
2024/01/01 08:41:53;;;;;;;20.58;12.15;;;;;;;6.50;84.48;97474.06;4935805;29;20031;-72
2024/01/01 08:44:18;;;;;;;20.70;12.30;;;;;;;6.55;85.07;97476.84;4930711;29;20035;-71
2024/01/01 08:46:43;;;;;;;18.52;12.02;;;;;;;6.64;84.02;97486.13;4953573;29;20487;-72
2024/01/01 08:49:09;;;;;;;17.45;11.63;;;;;;;6.68;84.45;97475.75;4935198;29;20086;-72
2024/01/01 08:51:35;;;;;;;19.42;11.65;;;;;;;6.72;83.49;97479.59;4936132;29;20538;-71
2024/01/01 08:54:01;;;;;;;17.45;11.57;;;;;;;6.71;84.50;97481.44;4954542;28;20043;-71
2024/01/01 08:56:27;;;;;;;21.00;14.90;;;;;;;6.77;83.72;97491.19;4954905;28;20023;-72
2024/01/01 08:58:52;;;;;;;28.98;17.75;;;;;;;6.67;83.27;97472.28;4924041;29;20042;-72
2024/01/01 09:01:18;;;;;;;24.95;16.88;;;;;;;6.78;83.79;97497.34;4952804;29;20113;-73
2024/01/01 09:03:43;;;;;;;20.73;13.68;;;;;;;6.73;83.83;97484.69;4935503;28;20035;-74
2024/01/01 09:06:08;;;;;;;19.70;12.45;;;;;;;6.83;83.32;97495.59;4924640;29;20484;-71
2024/01/01 09:08:34;;;;;;;18.00;12.35;;;;;;;6.83;83.49;97500.97;4945935;29;20043;-71
2024/01/01 09:10:59;;;;;;;18.65;11.10;;;;;;;6.78;83.98;97508.06;4940920;28;20054;-71
2024/01/01 09:13:25;;;;;;;17.98;10.48;;;;;;;6.76;83.50;97494.94;4937764;29;20483;-71
2024/01/01 09:15:50;;;;;;;20.45;10.15;;;;;;;6.84;83.91;97494.53;4950190;28;20608;-72
2024/01/01 09:18:15;;;;;;;22.70;11.88;;;;;;;6.78;83.67;97487.47;4934469;29;20115;-71
2024/01/01 09:20:41;;;;;;;21.27;9.57;;;;;;;6.87;83.57;97503.97;4924455;29;20490;-71
2024/01/01 09:23:07;;;;;;;16.45;9.20;;;;;;;6.87;83.23;97504.78;4934373;29;20039;-75
2024/01/01 09:25:42;;;;;;;14.05;8.48;;;;;;;6.80;83.29;97496.06;4912169;29;20085;-71
2024/01/01 09:28:07;;;;;;;14.23;7.70;;;;;;;6.94;82.96;97508.13;4933434;29;20075;-71
2024/01/01 09:30:32;;;;;;;16.10;7.38;;;;;;;6.94;83.34;97507.31;4937190;29;20042;-72
2024/01/01 09:32:58;;;;;;;18.25;6.82;;;;;;;6.97;82.25;97506.84;4935741;29;20411;-72
2024/01/01 09:35:23;;;;;;;33.20;16.10;;;;;;;6.89;81.40;97508.03;4922091;29;20198;-72
2024/01/01 09:37:52;;;;;;;19.27;6.60;;;;;;;6.83;80.54;97495.59;4935754;29;20046;-72
2024/01/01 09:40:18;;;;;;;72.43;32.70;;;;;;;6.95;79.40;97499.03;4936006;29;20037;-72
2024/01/01 09:42:47;;;;;;;28.67;11.75;;;;;;;6.98;79.07;97503.91;4919970;29;20118;-73
2024/01/01 09:45:13;;;;;;;95.22;39.60;;;;;;;7.10;78.54;97508.41;4935947;29;20086;-73
2024/01/01 09:47:40;;;;;;;69.80;30.63;;;;;;;7.21;78.35;97512.94;4936179;29;20039;-72
2024/01/01 09:50:06;;;;;;;51.67;20.67;;;;;;;7.11;76.99;97507.38;4930179;29;20391;-72
2024/01/01 09:52:31;;;;;;;17.33;7.40;;;;;;;7.31;77.29;97513.09;4937768;29;20050;-72
2024/01/01 09:54:58;;;;;;;64.78;28.05;;;;;;;7.20;76.25;97479.97;4937920;29;20110;-72
2024/01/01 09:57:23;;;;;;;69.03;32.80;;;;;;;7.42;75.94;97520.28;4944654;28;20522;-72
2024/01/01 09:59:48;;;;;;;79.30;37.90;;;;;;;7.44;75.81;97519.00;4948250;29;20078;-72
2024/01/01 10:02:14;;;;;;;16.52;7.63;;;;;;;7.42;75.64;97505.00;4921712;28;20043;-72
2024/01/01 10:04:39;;;;;;;15.95;5.47;;;;;;;7.56;74.97;97516.25;4963853;28;20026;-73
2024/01/01 10:07:05;;;;;;;12.35;4.25;;;;;;;7.49;75.15;97499.50;4943409;28;20027;-72
2024/01/01 10:09:31;;;;;;;10.57;4.20;;;;;;;7.65;73.95;97509.44;4956077;29;20475;-72
2024/01/01 10:12:09;;;;;;;11.32;3.72;;;;;;;7.73;74.07;97509.00;4922051;29;20055;-72
2024/01/01 10:14:48;;;;;;;11.63;3.45;;;;;;;7.75;74.12;97509.56;4937017;29;20035;-72
2024/01/01 10:17:15;;;;;;;10.55;3.30;;;;;;;7.83;73.56;97506.50;4950361;28;20049;-73
2024/01/01 10:19:51;;;;;;;10.63;3.22;;;;;;;7.79;73.36;97500.00;4936145;29;20027;-73
2024/01/01 10:22:20;;;;;;;9.68;2.92;;;;;;;7.72;72.64;97477.94;4922738;29;20403;-72
2024/01/01 10:24:47;;;;;;;13.02;3.28;;;;;;;7.72;72.28;97472.56;4938690;29;20038;-72
2024/01/01 10:27:16;;;;;;;10.20;3.03;;;;;;;7.79;71.98;97467.84;4919023;29;20035;-72
2024/01/01 10:29:42;;;;;;;8.80;3.33;;;;;;;7.71;70.69;97470.94;4918353;29;20015;-72
2024/01/01 10:32:08;;;;;;;12.63;3.08;;;;;;;7.82;70.62;97478.06;4937674;28;20407;-73
2024/01/01 10:34:36;;;;;;;7.97;2.85;;;;;;;7.97;70.50;97491.72;4952055;28;20058;-73
2024/01/01 10:37:01;;;;;;;10.95;3.33;;;;;;;7.82;69.50;97498.72;4940529;29;20047;-72
2024/01/01 10:39:27;;;;;;;11.95;3.75;;;;;;;7.94;70.24;97492.19;4938163;29;20039;-72
2024/01/01 10:41:53;;;;;;;11.80;4.55;;;;;;;8.00;70.92;97488.56;4938400;28;20130;-72
2024/01/01 10:44:18;;;;;;;14.00;3.80;;;;;;;7.96;69.51;97495.44;4935882;28;20019;-72
2024/01/01 10:46:46;;;;;;;14.07;3.85;;;;;;;8.02;68.86;97489.13;4934408;29;20114;-72
2024/01/01 10:49:21;;;;;;;12.35;4.40;;;;;;;8.04;69.11;97487.00;4942140;28;20158;-72
2024/01/01 10:52:08;;;;;;;8.18;2.83;;;;;;;7.97;68.78;97491.72;4938867;28;20510;-71
2024/01/01 10:54:59;;;;;;;12.77;3.00;;;;;;;7.87;68.97;97486.19;4950412;29;20046;-72
2024/01/01 10:57:49;;;;;;;9.93;3.03;;;;;;;7.92;68.60;97497.00;4933459;29;20059;-72
2024/01/01 11:00:38;;;;;;;12.25;3.50;;;;;;;8.00;69.27;97507.31;4940873;29;20074;-72
2024/01/01 11:03:04;;;;;;;11.77;2.92;;;;;;;7.90;69.21;97491.06;4937637;29;20042;-72
2024/01/01 11:05:34;;;;;;;9.85;3.20;;;;;;;7.97;68.77;97498.94;4900789;29;20019;-71
2024/01/01 11:08:01;;;;;;;8.90;3.03;;;;;;;8.03;68.84;97511.34;4937150;29;20035;-72
2024/01/01 11:10:34;;;;;;;12.70;3.03;;;;;;;8.03;68.39;97495.28;4928448;29;20032;-72
2024/01/01 11:12:59;;;;;;;12.30;3.17;;;;;;;7.93;69.26;97485.22;4962483;28;20034;-71
2024/01/01 11:15:43;;;;;;;10.00;2.92;;;;;;;7.94;68.76;97494.88;4922835;29;20034;-72
2024/01/01 11:18:18;;;;;;;11.15;3.30;;;;;;;7.94;68.65;97502.91;4923303;29;20682;-71
2024/01/01 11:20:56;;;;;;;12.07;2.85;;;;;;;7.94;68.99;97507.47;4922935;29;20032;-72
2024/01/01 11:23:44;;;;;;;13.25;3.22;;;;;;;8.04;67.81;97500.41;4943539;28;20473;-71